KRME/RME METAR and TAF weather

Enter ICAO airport designator
Station Type Date Time Source
KRME METAR 2019/07/18 10:53 UTC NOAA

KRME 181053Z 00000KT 10SM FEW024 19/18 A2995 RMK AO2 SLP139 T01940183


Station Type Date Time Source
KRME Decoded METAR 2019/07/18 10:53 UTC NOAA

GRIFFISS AIRFIELD, NY, United States (KRME) 43-14N 075-24W
Jul 18, 2019 - 06:53 AM EDT / 2019.07.18 1053 UTC
Wind: Calm:0
Visibility: 10 mile(s):0
Sky conditions: mostly clear
Temperature: 66.9 F (19.4 C)
Dew Point: 64.9 F (18.3 C)
Relative Humidity: 93%
Pressure (altimeter): 29.95 in. Hg (1014 hPa)
ob: KRME 181053Z 00000KT 10SM FEW024 19/18 A2995 RMK AO2 SLP139 T01940183
cycle: 11

Station Type Date Time Source
KRME TAF 2019/07/18 12:42 UTC NOAA

TAF KRME 181140Z 1812/1912 11005KT P6SM BKN035
FM181700 13006KT P6SM SCT040 BKN070

Example: see airport list